createdAt,value
2017-08-31T00:02:15.299Z,68.47
2017-08-31T00:04:41.735Z,68.73
2017-08-31T00:07:08.170Z,68.32
2017-08-31T00:09:34.627Z,68.23
2017-08-31T00:12:01.145Z,68.05
2017-08-31T00:14:28.295Z,68.27
2017-08-31T00:16:54.730Z,68.43
2017-08-31T00:19:21.168Z,68.65
2017-08-31T00:21:47.618Z,68.59
2017-08-31T00:24:14.034Z,67.46
2017-08-31T00:26:40.571Z,67.66
2017-08-31T00:29:07.005Z,68.46
2017-08-31T00:31:34.177Z,68.79
2017-08-31T00:34:00.593Z,69.00
2017-08-31T00:36:27.031Z,69.21
2017-08-31T00:38:53.426Z,69.28
2017-08-31T00:41:19.900Z,68.38
2017-08-31T00:43:46.332Z,68.35
2017-08-31T00:46:12.773Z,68.35
2017-08-31T00:48:39.980Z,68.76
2017-08-31T00:51:06.473Z,69.05
2017-08-31T00:53:32.991Z,68.98
2017-08-31T00:55:59.428Z,68.10
2017-08-31T00:58:25.864Z,67.58
2017-08-31T01:00:52.299Z,67.62
2017-08-31T01:03:18.732Z,67.73
2017-08-31T01:05:45.888Z,68.20
2017-08-31T01:08:12.290Z,68.44
2017-08-31T01:10:38.730Z,68.66
2017-08-31T01:13:05.145Z,69.12
2017-08-31T01:15:31.638Z,69.45
2017-08-31T01:17:58.079Z,69.47
2017-08-31T01:20:24.496Z,69.56
2017-08-31T01:22:51.748Z,69.31
2017-08-31T01:25:18.185Z,69.48
2017-08-31T01:27:44.619Z,69.90
2017-08-31T01:30:11.053Z,70.55
2017-08-31T01:32:37.488Z,70.58
2017-08-31T01:35:03.887Z,70.83
2017-08-31T01:37:30.358Z,71.38
2017-08-31T01:39:57.465Z,71.22
2017-08-31T01:42:23.842Z,71.34
2017-08-31T01:44:50.278Z,70.96
2017-08-31T01:47:16.712Z,70.83
2017-08-31T01:49:43.150Z,71.14
2017-08-31T01:52:09.581Z,71.39
2017-08-31T01:54:36.018Z,71.41
2017-08-31T01:57:03.224Z,71.74
2017-08-31T01:59:29.576Z,71.70
2017-08-31T02:01:56.038Z,71.03
2017-08-31T02:04:22.473Z,71.10
2017-08-31T02:06:48.907Z,71.27
2017-08-31T02:09:15.342Z,70.96
2017-08-31T02:11:41.876Z,70.77
2017-08-31T02:14:09.031Z,70.73
2017-08-31T02:16:35.466Z,70.77
2017-08-31T02:19:02.003Z,70.88
2017-08-31T02:21:28.437Z,71.05
2017-08-31T02:23:54.873Z,71.22
2017-08-31T02:26:21.308Z,69.84
2017-08-31T02:28:47.744Z,69.87
2017-08-31T02:31:14.906Z,70.65
2017-08-31T02:33:41.350Z,71.07
2017-08-31T02:36:07.867Z,71.21
2017-08-31T02:38:34.302Z,71.01
2017-08-31T02:41:00.736Z,70.78
2017-08-31T02:43:27.132Z,70.19
2017-08-31T02:45:53.606Z,69.78
2017-08-31T02:48:20.714Z,69.81
2017-08-31T02:50:47.148Z,70.20
2017-08-31T02:53:13.627Z,70.90
2017-08-31T02:55:40.063Z,70.93
2017-08-31T02:58:06.497Z,70.58
2017-08-31T03:00:32.884Z,70.74
2017-08-31T03:02:59.367Z,71.22
2017-08-31T03:05:26.519Z,71.41
2017-08-31T03:07:52.954Z,71.44
2017-08-31T03:10:19.391Z,71.52
2017-08-31T03:12:45.776Z,71.63
2017-08-31T03:15:12.261Z,71.47
2017-08-31T03:17:38.692Z,71.21
2017-08-31T03:20:05.132Z,70.12
2017-08-31T03:22:32.383Z,69.70
2017-08-31T03:24:58.819Z,69.72
2017-08-31T03:27:25.179Z,69.50
2017-08-31T03:29:51.584Z,69.64
2017-08-31T03:32:18.019Z,69.47
2017-08-31T03:34:44.455Z,69.56
2017-08-31T03:37:10.891Z,69.70
2017-08-31T03:39:38.044Z,70.20
2017-08-31T03:42:04.532Z,70.15
2017-08-31T03:44:31.032Z,70.05
2017-08-31T03:46:57.448Z,70.39
2017-08-31T03:49:23.809Z,70.75
2017-08-31T03:51:50.315Z,71.03
2017-08-31T03:54:16.749Z,70.79
2017-08-31T03:56:44.008Z,70.95
2017-08-31T03:59:10.402Z,70.74
2017-08-31T04:01:36.876Z,70.64
2017-08-31T04:04:03.299Z,70.42
2017-08-31T04:06:29.738Z,70.20
2017-08-31T04:08:56.182Z,70.26
2017-08-31T04:11:22.617Z,70.00
2017-08-31T04:13:49.768Z,69.43
2017-08-31T04:16:16.154Z,68.95
2017-08-31T04:18:42.638Z,68.41
2017-08-31T04:21:09.072Z,68.38
2017-08-31T04:23:35.507Z,68.27
2017-08-31T04:26:01.940Z,68.67
2017-08-31T04:28:28.377Z,68.27
2017-08-31T04:30:55.514Z,68.18
2017-08-31T04:33:21.964Z,68.25
2017-08-31T04:35:48.399Z,68.35
2017-08-31T04:38:14.834Z,68.52
2017-08-31T04:40:41.268Z,68.67
2017-08-31T04:43:07.703Z,68.86
2017-08-31T04:45:34.139Z,69.09
2017-08-31T04:48:01.289Z,69.09
2017-08-31T04:50:27.745Z,68.53
2017-08-31T04:52:54.160Z,68.01
2017-08-31T04:55:20.599Z,67.49
2017-08-31T04:57:47.135Z,67.34
2017-08-31T05:00:13.566Z,66.96
2017-08-31T05:02:40.001Z,66.55
2017-08-31T05:05:07.156Z,66.28
2017-08-31T05:07:33.588Z,66.22
2017-08-31T05:10:00.023Z,65.71
2017-08-31T05:12:26.464Z,65.28
2017-08-31T05:14:52.896Z,65.15
2017-08-31T05:17:19.328Z,64.78
2017-08-31T05:19:45.763Z,64.52
2017-08-31T05:22:12.978Z,64.98
2017-08-31T05:24:39.468Z,65.06
2017-08-31T05:27:05.889Z,64.71
2017-08-31T05:29:32.322Z,64.46
2017-08-31T05:31:58.758Z,64.66
2017-08-31T05:34:25.192Z,64.21
2017-08-31T05:36:51.612Z,64.01
2017-08-31T05:39:18.880Z,63.97
2017-08-31T05:41:45.314Z,63.42
2017-08-31T05:44:11.714Z,62.94
2017-08-31T05:46:38.182Z,62.40
2017-08-31T05:49:04.616Z,61.84
2017-08-31T05:51:31.054Z,61.77
2017-08-31T05:53:57.582Z,61.70
2017-08-31T05:56:24.284Z,61.31
2017-08-31T05:58:51.077Z,61.24
2017-08-31T06:01:17.479Z,61.60
2017-08-31T06:03:44.048Z,61.05
2017-08-31T06:06:10.588Z,60.66
2017-08-31T06:08:37.019Z,60.65
2017-08-31T06:11:03.553Z,60.70
2017-08-31T06:13:29.994Z,60.56
2017-08-31T06:15:56.819Z,60.21
2017-08-31T06:18:23.475Z,59.71
2017-08-31T06:20:50.013Z,59.05
2017-08-31T06:23:16.552Z,58.63
2017-08-31T06:25:43.192Z,58.00
2017-08-31T06:28:09.630Z,55.93
2017-08-31T06:30:36.163Z,55.67
2017-08-31T06:33:02.805Z,55.01
2017-08-31T06:35:29.144Z,55.37
2017-08-31T06:37:55.570Z,54.48
2017-08-31T06:40:22.007Z,54.74
2017-08-31T06:42:48.440Z,54.48
2017-08-31T06:45:15.182Z,53.81
2017-08-31T06:47:41.923Z,53.96
2017-08-31T06:50:09.485Z,53.95
2017-08-31T06:52:36.125Z,53.79
2017-08-31T06:55:02.559Z,53.44
2017-08-31T06:57:29.257Z,53.22
2017-08-31T06:59:55.963Z,53.01
2017-08-31T07:02:22.581Z,52.82
2017-08-31T07:04:49.223Z,52.06
2017-08-31T07:07:16.186Z,52.08
2017-08-31T07:09:42.623Z,51.69
2017-08-31T07:12:09.240Z,51.30
2017-08-31T07:14:36.492Z,51.15
2017-08-31T07:17:03.233Z,50.93
2017-08-31T07:19:29.878Z,50.48
2017-08-31T07:21:56.416Z,50.47
2017-08-31T07:24:23.629Z,49.93
2017-08-31T07:26:50.080Z,50.09
2017-08-31T07:29:17.216Z,49.62
2017-08-31T07:31:43.691Z,49.30
2017-08-31T07:34:10.127Z,49.83
2017-08-31T07:36:37.197Z,49.80
2017-08-31T07:39:03.962Z,48.00
2017-08-31T07:41:30.864Z,47.04
2017-08-31T07:43:57.661Z,47.37
2017-08-31T07:46:24.145Z,47.32
2017-08-31T07:48:50.803Z,46.37
2017-08-31T07:51:17.189Z,46.21
2017-08-31T07:53:43.862Z,45.02
2017-08-31T07:56:10.374Z,45.81
2017-08-31T07:58:37.752Z,45.77
2017-08-31T08:01:04.195Z,44.26
2017-08-31T08:03:30.626Z,45.03
2017-08-31T08:05:57.158Z,44.84
2017-08-31T08:08:26.427Z,44.58
2017-08-31T08:10:53.779Z,44.75
2017-08-31T08:13:21.561Z,43.05
2017-08-31T08:15:48.223Z,42.82
2017-08-31T08:18:14.760Z,43.03
2017-08-31T08:20:41.196Z,43.17
2017-08-31T08:23:07.629Z,41.25
2017-08-31T08:25:34.426Z,40.12
2017-08-31T08:28:00.872Z,39.87
2017-08-31T08:30:27.342Z,40.40
2017-08-31T08:32:53.738Z,39.30
2017-08-31T08:35:20.164Z,39.38
2017-08-31T08:37:46.947Z,39.40
2017-08-31T08:40:13.697Z,39.28
2017-08-31T08:42:40.133Z,39.15
2017-08-31T08:45:06.583Z,39.08
2017-08-31T08:47:33.823Z,38.63
2017-08-31T08:50:00.769Z,38.85
2017-08-31T08:52:27.204Z,39.20
2017-08-31T08:54:53.946Z,38.78
2017-08-31T08:57:20.483Z,39.27
2017-08-31T08:59:46.918Z,38.93
2017-08-31T09:02:13.557Z,38.35
2017-08-31T09:04:40.094Z,38.11
2017-08-31T09:07:06.936Z,38.19
2017-08-31T09:09:33.784Z,38.37
2017-08-31T09:12:00.322Z,39.00
2017-08-31T09:14:26.905Z,40.29
2017-08-31T09:16:53.482Z,40.59
2017-08-31T09:19:19.987Z,39.67
2017-08-31T09:21:46.470Z,38.88
2017-08-31T09:24:13.520Z,38.69
2017-08-31T09:26:40.056Z,38.48
2017-08-31T09:29:06.673Z,38.77
2017-08-31T09:31:34.051Z,39.42
2017-08-31T09:34:00.693Z,39.26
2017-08-31T09:36:27.228Z,39.08
2017-08-31T09:38:53.868Z,39.48
2017-08-31T09:41:20.405Z,39.70
2017-08-31T09:43:46.878Z,39.86
2017-08-31T09:46:13.890Z,39.27
2017-08-31T09:48:40.636Z,39.02
2017-08-31T09:51:07.782Z,39.08
2017-08-31T09:53:35.038Z,39.59
2017-08-31T09:56:01.780Z,38.86
2017-08-31T09:58:28.615Z,37.91
2017-08-31T10:00:55.264Z,37.67
2017-08-31T10:03:21.697Z,38.23
2017-08-31T10:05:48.287Z,37.76
2017-08-31T10:08:14.836Z,37.87
2017-08-31T10:10:41.822Z,37.87
2017-08-31T10:13:08.402Z,37.48
2017-08-31T10:15:35.238Z,37.55
2017-08-31T10:18:01.588Z,37.05
2017-08-31T10:20:27.974Z,37.37
2017-08-31T10:22:55.025Z,37.38
2017-08-31T10:25:21.719Z,37.39
2017-08-31T10:27:48.176Z,37.49
2017-08-31T10:30:15.452Z,37.49
2017-08-31T10:32:41.885Z,36.97
2017-08-31T10:35:08.301Z,36.25
2017-08-31T10:37:35.181Z,37.52
2017-08-31T10:40:01.804Z,36.94
2017-08-31T10:42:28.241Z,36.75
2017-08-31T10:44:55.087Z,36.67
2017-08-31T10:47:21.621Z,36.63
2017-08-31T10:49:48.057Z,36.91
2017-08-31T10:52:14.595Z,37.27
2017-08-31T10:54:41.030Z,37.42
2017-08-31T10:57:07.669Z,37.11
2017-08-31T10:59:34.070Z,36.95
2017-08-31T11:02:00.515Z,37.08
2017-08-31T11:04:26.975Z,36.75
2017-08-31T11:06:53.744Z,36.83
2017-08-31T11:09:20.155Z,36.83
2017-08-31T11:11:46.590Z,36.86
2017-08-31T11:14:13.123Z,36.39
2017-08-31T11:16:39.967Z,36.45
2017-08-31T11:19:06.725Z,36.50
2017-08-31T11:21:33.249Z,36.36
2017-08-31T11:24:00.049Z,35.86
2017-08-31T11:26:26.814Z,35.03
2017-08-31T11:28:53.797Z,34.28
2017-08-31T11:31:20.852Z,33.65
2017-08-31T11:33:48.357Z,32.97
2017-08-31T11:36:15.033Z,31.44
2017-08-31T11:38:42.080Z,30.42
2017-08-31T11:41:08.572Z,29.70
2017-08-31T11:43:34.997Z,28.28
2017-08-31T11:46:01.545Z,28.40
2017-08-31T11:48:27.943Z,28.65
2017-08-31T11:50:54.411Z,28.31
2017-08-31T11:53:21.052Z,27.40
2017-08-31T11:55:47.524Z,26.73
2017-08-31T11:58:13.968Z,27.12
2017-08-31T12:00:40.712Z,26.29
2017-08-31T12:03:07.262Z,25.73
2017-08-31T12:05:33.749Z,24.75
2017-08-31T12:08:00.626Z,24.00
2017-08-31T12:10:27.271Z,23.32
2017-08-31T12:12:53.814Z,23.43
2017-08-31T12:15:20.958Z,23.34
2017-08-31T12:17:47.695Z,24.24
2017-08-31T12:20:14.344Z,24.81
2017-08-31T12:22:41.079Z,23.79
2017-08-31T12:25:07.721Z,23.46
2017-08-31T12:27:34.262Z,22.46
2017-08-31T12:30:01.307Z,21.83
2017-08-31T12:32:28.167Z,21.86
2017-08-31T12:34:54.690Z,21.57
2017-08-31T12:37:21.291Z,22.10
2017-08-31T12:39:49.009Z,22.16
2017-08-31T12:42:17.078Z,21.84
2017-08-31T12:44:43.922Z,21.93
2017-08-31T12:47:10.612Z,21.87
2017-08-31T12:49:37.501Z,21.57
2017-08-31T12:52:04.237Z,21.24
2017-08-31T12:54:30.881Z,20.80
2017-08-31T12:56:57.839Z,20.49
2017-08-31T12:59:24.568Z,19.35
2017-08-31T13:01:51.103Z,19.09
2017-08-31T13:04:18.260Z,18.75
2017-08-31T13:06:44.797Z,18.62
2017-08-31T13:14:15.361Z,18.98
2017-08-31T13:16:41.856Z,19.26
2017-08-31T13:19:08.304Z,19.77
2017-08-31T13:21:34.741Z,20.03
2017-08-31T13:24:01.276Z,20.59
2017-08-31T13:26:28.135Z,20.57
2017-08-31T13:28:54.759Z,19.85
2017-08-31T13:31:21.325Z,19.32
2017-08-31T13:33:47.936Z,18.70
2017-08-31T13:36:14.906Z,18.36
2017-08-31T13:38:42.037Z,17.62
2017-08-31T13:41:08.496Z,17.99
2017-08-31T13:43:35.007Z,17.72
2017-08-31T13:46:01.752Z,17.40
2017-08-31T13:48:28.186Z,17.54
2017-08-31T13:50:54.622Z,17.32
2017-08-31T13:53:21.260Z,17.34
2017-08-31T13:55:47.697Z,17.08
2017-08-31T13:58:14.132Z,16.80
2017-08-31T14:00:40.569Z,16.46
2017-08-31T14:03:07.408Z,16.78
2017-08-31T14:05:34.458Z,17.25
2017-08-31T14:08:00.937Z,17.86
2017-08-31T14:10:27.941Z,19.19
2017-08-31T14:12:54.493Z,21.59
2017-08-31T14:15:20.912Z,23.03
2017-08-31T14:17:47.656Z,23.96
2017-08-31T14:20:14.091Z,24.99
2017-08-31T14:22:40.628Z,25.41
2017-08-31T14:25:07.267Z,26.08
2017-08-31T14:27:33.704Z,26.55
2017-08-31T14:30:00.099Z,27.19
2017-08-31T14:32:26.572Z,27.44
2017-08-31T14:34:53.008Z,27.61
2017-08-31T14:37:19.444Z,27.77
2017-08-31T14:42:17.637Z,28.38
2017-08-31T15:02:24.548Z,29.54
2017-08-31T15:07:22.486Z,29.57
2017-08-31T15:09:48.898Z,29.90
2017-08-31T15:12:15.510Z,29.94
2017-08-31T15:14:41.944Z,30.21
2017-08-31T15:17:08.471Z,30.38
2017-08-31T15:19:34.919Z,30.15
2017-08-31T15:22:01.329Z,30.46
2017-08-31T15:24:27.789Z,30.30
2017-08-31T15:26:54.221Z,30.65
2017-08-31T15:29:20.655Z,30.44
2017-08-31T15:31:47.088Z,30.30
2017-08-31T15:34:13.494Z,30.75
2017-08-31T15:36:39.940Z,30.78
2017-08-31T15:39:06.395Z,30.88
2017-08-31T15:41:32.831Z,31.72
2017-08-31T15:43:59.265Z,31.21
2017-08-31T15:46:25.700Z,31.14
2017-08-31T15:48:52.136Z,31.19
2017-08-31T15:51:18.570Z,31.10
2017-08-31T15:53:45.005Z,31.33
2017-08-31T15:56:12.179Z,31.22
2017-08-31T15:58:39.925Z,31.49
2017-08-31T16:01:06.614Z,31.33
2017-08-31T16:03:33.919Z,31.47
2017-08-31T16:06:00.421Z,31.95
2017-08-31T16:08:26.895Z,32.76
2017-08-31T16:10:53.328Z,32.95
2017-08-31T16:13:19.731Z,33.15
2017-08-31T16:15:46.157Z,33.54
2017-08-31T16:18:12.636Z,33.33
2017-08-31T16:23:11.543Z,33.44
2017-08-31T16:25:37.996Z,33.63
2017-08-31T16:28:04.409Z,33.51
2017-08-31T16:30:30.846Z,33.87
2017-08-31T16:32:57.233Z,34.25
2017-08-31T16:35:23.717Z,34.21
2017-08-31T16:37:50.153Z,34.40
2017-08-31T16:40:16.587Z,34.33
2017-08-31T16:42:42.966Z,35.41
2017-08-31T16:45:09.355Z,35.38
2017-08-31T16:47:35.788Z,35.13
2017-08-31T16:50:02.204Z,35.32
2017-08-31T16:52:28.556Z,35.93
2017-08-31T16:54:55.099Z,36.36
2017-08-31T16:57:21.528Z,36.65
2017-08-31T16:59:47.962Z,36.54
2017-08-31T17:02:14.397Z,36.98
2017-08-31T17:04:40.837Z,38.27
2017-08-31T17:07:07.268Z,39.13
2017-08-31T17:09:33.721Z,39.14
2017-08-31T17:12:00.137Z,39.19
2017-08-31T17:14:26.575Z,40.11
2017-08-31T17:16:53.109Z,40.85
2017-08-31T17:19:20.162Z,41.01
2017-08-31T17:21:46.547Z,41.64
2017-08-31T17:24:13.029Z,41.45
2017-08-31T17:26:39.463Z,42.02
2017-08-31T17:29:05.899Z,42.52
2017-08-31T17:31:32.334Z,42.15
2017-08-31T17:33:58.730Z,41.92
2017-08-31T17:36:25.920Z,42.02
2017-08-31T17:38:52.355Z,41.65
2017-08-31T17:41:18.770Z,41.56
2017-08-31T17:43:45.225Z,42.67
2017-08-31T17:46:11.614Z,42.63
2017-08-31T17:48:38.094Z,43.55
2017-08-31T17:51:04.529Z,43.93
2017-08-31T17:53:31.785Z,43.04
2017-08-31T17:55:58.354Z,43.20
2017-08-31T17:58:24.860Z,43.72
2017-08-31T18:00:51.298Z,44.19
2017-08-31T18:03:17.675Z,44.63
2017-08-31T18:05:44.166Z,45.20
2017-08-31T18:08:10.599Z,46.02
2017-08-31T18:10:37.874Z,46.46
2017-08-31T18:13:04.237Z,45.97
2017-08-31T18:15:30.724Z,45.33
2017-08-31T18:17:57.107Z,46.26
2017-08-31T18:20:23.595Z,46.42
2017-08-31T18:22:50.029Z,45.89
2017-08-31T18:25:16.463Z,46.16
2017-08-31T18:27:43.718Z,46.23
2017-08-31T18:30:10.150Z,45.94
2017-08-31T18:32:36.585Z,46.93
2017-08-31T18:35:03.020Z,47.27
2017-08-31T18:37:29.557Z,47.70
2017-08-31T18:39:55.945Z,47.82
2017-08-31T18:42:22.426Z,48.03
2017-08-31T18:44:49.579Z,48.04
2017-08-31T18:47:16.012Z,49.15
2017-08-31T18:49:42.448Z,49.25
2017-08-31T18:52:08.837Z,49.66
2017-08-31T18:54:35.316Z,49.11
2017-08-31T18:57:01.807Z,49.46
2017-08-31T18:59:28.292Z,49.34
2017-08-31T19:01:55.442Z,49.50
2017-08-31T19:04:21.878Z,50.10
2017-08-31T19:06:48.312Z,50.36
2017-08-31T19:09:14.744Z,49.87
2017-08-31T19:11:41.182Z,50.08
2017-08-31T19:14:07.618Z,49.97
2017-08-31T19:16:34.051Z,50.64
2017-08-31T19:19:01.306Z,50.98
2017-08-31T19:21:27.741Z,50.75
2017-08-31T19:23:54.313Z,51.33
2017-08-31T19:26:20.669Z,51.26
2017-08-31T19:28:47.151Z,51.54
2017-08-31T19:31:13.582Z,51.37
2017-08-31T19:33:40.017Z,51.69
2017-08-31T19:36:07.120Z,52.28
2017-08-31T19:38:33.608Z,52.90
2017-08-31T19:41:00.040Z,52.55
2017-08-31T19:43:26.441Z,53.52
2017-08-31T19:45:52.912Z,53.80
2017-08-31T19:48:19.341Z,53.93
2017-08-31T19:50:45.779Z,54.04
2017-08-31T19:53:13.032Z,53.47
2017-08-31T19:55:39.469Z,53.88
2017-08-31T19:58:05.902Z,53.40
2017-08-31T20:00:32.338Z,53.28
2017-08-31T20:02:58.775Z,53.19
2017-08-31T20:05:25.205Z,53.37
2017-08-31T20:07:51.643Z,53.44
2017-08-31T20:10:18.898Z,53.65
2017-08-31T20:12:45.331Z,54.01
2017-08-31T20:15:11.765Z,54.22
2017-08-31T20:17:38.202Z,54.70
2017-08-31T20:20:04.635Z,54.87
2017-08-31T20:22:31.071Z,54.43
2017-08-31T20:24:57.509Z,54.03
2017-08-31T20:27:24.659Z,54.70
2017-08-31T20:29:51.112Z,54.96
2017-08-31T20:32:17.527Z,54.93
2017-08-31T20:34:43.961Z,54.21
2017-08-31T20:37:10.350Z,54.29
2017-08-31T20:39:36.832Z,53.88
2017-08-31T20:42:03.266Z,53.62
2017-08-31T20:44:30.417Z,53.52
2017-08-31T20:46:56.853Z,53.79
2017-08-31T20:49:23.289Z,54.09
2017-08-31T20:51:49.719Z,53.94
2017-08-31T20:54:16.159Z,54.22
2017-08-31T20:56:42.596Z,53.92
2017-08-31T20:59:08.980Z,53.61
2017-08-31T21:01:36.178Z,53.83
2017-08-31T21:04:02.616Z,54.15
2017-08-31T21:06:29.055Z,53.94
2017-08-31T21:08:55.442Z,54.07
2017-08-31T21:11:21.910Z,53.81
2017-08-31T21:13:48.354Z,54.29
2017-08-31T21:16:14.789Z,54.48
2017-08-31T21:18:41.941Z,55.25
2017-08-31T21:21:08.479Z,55.31
2017-08-31T21:23:34.912Z,54.87
2017-08-31T21:26:01.347Z,55.22
2017-08-31T21:28:27.781Z,55.40
2017-08-31T21:30:54.216Z,55.71
2017-08-31T21:33:20.651Z,56.44
2017-08-31T21:35:47.804Z,56.53
2017-08-31T21:38:14.238Z,56.86
2017-08-31T21:40:40.675Z,56.50
2017-08-31T21:43:07.070Z,57.18
2017-08-31T21:45:33.543Z,57.29
2017-08-31T21:47:59.980Z,57.23
2017-08-31T21:50:26.412Z,57.59
2017-08-31T21:52:53.564Z,57.86
2017-08-31T21:55:19.947Z,58.34
2017-08-31T21:57:46.438Z,58.09
2017-08-31T22:00:12.869Z,58.23
2017-08-31T22:02:39.304Z,58.17
2017-08-31T22:05:05.738Z,58.77
2017-08-31T22:07:32.161Z,58.34
2017-08-31T22:09:59.329Z,58.45
2017-08-31T22:12:25.760Z,58.32
2017-08-31T22:14:52.197Z,58.54
2017-08-31T22:17:18.630Z,58.79
2017-08-31T22:19:45.065Z,58.87
2017-08-31T22:22:11.497Z,59.55
2017-08-31T22:24:37.936Z,59.10
2017-08-31T22:27:05.086Z,59.80
2017-08-31T22:29:31.521Z,59.77
2017-08-31T22:31:57.959Z,60.06
2017-08-31T22:34:24.391Z,60.26
2017-08-31T22:36:50.825Z,60.39
2017-08-31T22:39:17.244Z,60.29
2017-08-31T22:41:43.686Z,59.88
2017-08-31T22:44:10.844Z,60.34
2017-08-31T22:46:37.281Z,60.48
2017-08-31T22:49:03.716Z,60.38
2017-08-31T22:51:30.152Z,60.65
2017-08-31T22:53:56.589Z,61.19
2017-08-31T22:56:23.024Z,61.27
2017-08-31T22:58:49.457Z,61.36
2017-08-31T23:01:16.607Z,61.61
2017-08-31T23:03:43.050Z,61.39
2017-08-31T23:06:09.483Z,61.75
2017-08-31T23:08:35.916Z,61.79
2017-08-31T23:11:02.454Z,61.86
2017-08-31T23:13:28.886Z,61.79
2017-08-31T23:15:55.323Z,61.46
2017-08-31T23:18:22.475Z,61.09
2017-08-31T23:20:48.907Z,61.51
2017-08-31T23:23:15.338Z,61.04
2017-08-31T23:25:41.777Z,61.05
2017-08-31T23:28:08.212Z,61.27
2017-08-31T23:30:34.646Z,61.23
2017-08-31T23:33:01.037Z,61.54
2017-08-31T23:35:28.227Z,62.11
2017-08-31T23:37:54.671Z,62.25
2017-08-31T23:40:21.052Z,61.48
2017-08-31T23:42:47.536Z,61.69
2017-08-31T23:45:13.972Z,61.10
2017-08-31T23:47:40.409Z,61.21
2017-08-31T23:50:06.859Z,60.24
2017-08-31T23:52:33.994Z,60.57
2017-08-31T23:55:00.430Z,60.35
2017-08-31T23:57:26.863Z,60.03
2017-08-31T23:59:53.297Z,60.08
